首页
METAR-TAF:

METAR-TAF

机场 :

尼斯蓝色海岸机场

尼斯, 法国

纬度: 43-39N, 经度: 007-12E, 海拔: 4米

当前天气观测

该预报发布于34分钟前的10:00 UTC
风速9节,风向南转西南
温度 28°C
湿度 48%
气压 1004 hPa
能见度10公里或以上
1500米以下无云,无积雨云

METAR: LFMN 011000Z 20009KT CAVOK 28/16 Q1004 NOSIG

时间: 12:34 (10:34 UTC)

预报

该预报发布于2小时和34分钟前的08:00 UTC
预报有效从01日的 09点(UTC)到 02日的 15点(UTC)
风速12节,风向西南
能见度10公里或以上
1500米以下无云,无积雨云
短暂存在
从 01日的 11点(UTC)到 01日的 13点(UTC)
风速20节,风向西南,有时为30节阵风
短暂存在
从 01日的 13点(UTC)到 01日的 19点(UTC)
风速20节,风向西,有时为30节阵风
成为
从 01日的 21点(UTC)到 01日的 23点(UTC)
风速3节,风向多变
短暂存在
从 02日的 00点(UTC)到 02日的 08点(UTC)
风速10节,风向北转西北
成为
从 02日的 08点(UTC)到 02日的 10点(UTC)
风速10节,风向
短暂存在
从 02日的 11点(UTC)到 02日的 14点(UTC)
风速10节,风向
短暂存在
从 02日的 14点(UTC)到 02日的 15点(UTC)
风速20节,风向南转西南,有时为30节阵风

TAF: LFMN 010800Z 0109/0215 22012KT CAVOK TEMPO 0111/0113 23020G30KT TEMPO 0113/0119 26020G30KT BECMG 0121/0123 VRB03KT TEMPO 0200/0208 34010KT BECMG 0208/0210 19010KT TEMPO 0211/0214 10010KT TEMPO 0214/0215 20020G30KT

超过4000个机场的气象观测和天气预报(METAR&TAF报告)。

可查询的气象台以黄色和红色小点在地图上表示。

将鼠标移到小点上方,可查看气象台名称。

然后点击查看天气观测和预报。

如需切换地图:点击带黑十字的绿色按钮放大地图;点击带横线的绿色按钮缩小地图;或者点击绿色箭头查看邻近地区的地图。


METAR-TAF: